Time;durP1;ratioP1;P1;durP2;ratioP2;P2;SDS_P1;SDS_P2;PMS_P1;PMS_P2;Temp;Humidity;BMP_temperature;BMP_pressure;BME280_temperature;BME280_humidity;BME280_pressure;Samples;Min_cycle;Max_cycle;Signal;HPM_P1;HPM_P2
2024/01/15 00:01:53;;;;;;;0.80;0.47;;;;;;;-143.84;38.00;45178.56;5111337;28;21037;-59
2024/01/15 00:04:21;;;;;;;1.73;1.03;;;;;;;-143.84;38.14;45195.69;5111322;28;20443;-59
2024/01/15 00:06:49;;;;;;;0.90;0.60;;;;;;;-143.84;37.82;45153.81;5111353;28;20462;-59
2024/01/15 00:09:16;;;;;;;1.13;1.03;;;;;;;-143.84;37.89;45174.75;5111193;28;20450;-59
2024/01/15 00:11:43;;;;;;;0.80;0.60;;;;;;;-143.84;37.86;45170.94;5111497;28;20897;-59
2024/01/15 00:14:10;;;;;;;1.27;1.17;;;;;;;-143.84;37.98;45150.00;5111411;27;20427;-59
2024/01/15 00:16:37;;;;;;;1.10;0.90;;;;;;;-143.84;37.94;45180.47;5111090;28;20450;-59
2024/01/15 00:19:04;;;;;;;0.80;0.50;;;;;;;-143.84;37.54;45151.91;5111127;28;20497;-59
2024/01/15 00:21:33;;;;;;;0.80;0.60;;;;;;;-143.84;37.39;45174.75;5110746;28;20470;-59
2024/01/15 00:24:00;;;;;;;0.80;0.40;;;;;;;-143.84;37.56;45155.69;5111036;28;20973;-59
2024/01/15 00:26:27;;;;;;;0.80;0.50;;;;;;;-143.84;37.60;45159.50;5110591;28;20439;-59
2024/01/15 00:28:55;;;;;;;0.80;0.60;;;;;;;-143.84;37.65;45155.69;5110745;28;20443;-59
2024/01/15 00:31:22;;;;;;;0.80;0.40;;;;;;;-143.84;37.48;45172.84;5111051;28;20439;-59
2024/01/15 00:33:49;;;;;;;1.00;0.80;;;;;;;-143.84;37.57;45188.06;5110591;28;20864;-59
2024/01/15 00:36:16;;;;;;;1.70;0.97;;;;;;;-143.84;37.65;45180.47;5110728;28;20497;-59
2024/01/15 00:38:47;;;;;;;0.80;0.40;;;;;;;-143.84;37.69;45169.03;5110707;28;20431;-59
2024/01/15 00:41:14;;;;;;;0.80;0.60;;;;;;;-143.84;37.73;45193.78;5110952;28;20495;-59
2024/01/15 00:43:41;;;;;;;0.80;0.40;;;;;;;-143.84;38.01;45153.81;5110677;28;20887;-59
2024/01/15 00:46:09;;;;;;;0.80;0.50;;;;;;;-143.84;38.09;45159.50;5110565;28;20997;-59
2024/01/15 00:48:36;;;;;;;1.00;0.90;;;;;;;-143.84;38.41;45191.88;5110465;28;20435;-59
2024/01/15 00:51:03;;;;;;;0.80;0.50;;;;;;;-143.84;38.35;45174.75;5110455;28;20846;-59
2024/01/15 00:53:30;;;;;;;1.10;0.90;;;;;;;-143.84;38.53;45184.25;5110310;28;20450;-59
2024/01/15 00:55:59;;;;;;;4.00;1.57;;;;;;;-143.84;42.47;45155.69;5110289;28;20435;-59
2024/01/15 00:58:27;;;;;;;1.73;1.50;;;;;;;-143.84;44.01;45167.13;5110456;28;20488;-59
2024/01/15 01:00:54;;;;;;;0.80;0.50;;;;;;;-143.84;44.84;45193.78;5110193;28;20570;-59
2024/01/15 01:03:21;;;;;;;1.00;0.73;;;;;;;-143.84;44.06;45195.69;5109939;28;20511;-59
2024/01/15 01:05:49;;;;;;;1.23;1.13;;;;;;;-143.84;45.05;45191.88;5110079;28;20872;-59
2024/01/15 01:08:17;;;;;;;1.10;1.00;;;;;;;-143.84;44.39;45209.03;5110048;28;20445;-59
2024/01/15 01:10:44;;;;;;;1.83;1.73;;;;;;;-143.84;43.85;45195.69;5110062;28;20475;-59
2024/01/15 01:13:12;;;;;;;1.00;0.67;;;;;;;-143.84;43.15;45195.69;5110253;28;20865;-59
2024/01/15 01:15:39;;;;;;;1.10;0.70;;;;;;;-143.84;43.02;45201.41;5109932;28;20502;-59
2024/01/15 01:18:07;;;;;;;0.80;0.67;;;;;;;-143.84;42.58;45172.84;5109647;28;20510;-59
2024/01/15 01:20:34;;;;;;;1.20;0.97;;;;;;;-143.84;42.39;45193.78;5109612;28;20480;-59
2024/01/15 01:23:01;;;;;;;0.80;0.57;;;;;;;-143.84;41.45;45180.47;5110054;28;20482;-59
2024/01/15 01:25:28;;;;;;;0.80;0.60;;;;;;;-143.84;41.45;45189.97;5109711;28;20442;-59
2024/01/15 01:27:55;;;;;;;0.80;0.70;;;;;;;-143.84;41.37;45197.59;5110023;28;20435;-59
2024/01/15 01:30:24;;;;;;;6.33;1.57;;;;;;;-143.84;41.05;45169.03;5109513;28;20450;-59
2024/01/15 01:32:51;;;;;;;0.80;0.50;;;;;;;-143.84;40.42;45159.50;5109526;28;20932;-59
2024/01/15 01:35:18;;;;;;;1.93;1.60;;;;;;;-143.84;40.25;45176.66;5109722;28;20499;-59
2024/01/15 01:37:45;;;;;;;0.83;0.70;;;;;;;-143.84;40.37;45172.84;5108996;28;20446;-59
2024/01/15 01:40:12;;;;;;;1.10;0.90;;;;;;;-143.84;39.63;45193.78;5109521;28;20457;-59
2024/01/15 01:42:39;;;;;;;0.97;0.87;;;;;;;-143.84;39.60;45180.47;5109603;28;20518;-59
2024/01/15 01:45:08;;;;;;;0.87;0.63;;;;;;;-143.84;39.67;45188.06;5109329;28;20450;-59
2024/01/15 01:47:37;;;;;;;0.80;0.50;;;;;;;-143.84;39.23;45153.81;5109682;28;20460;-59
2024/01/15 01:50:04;;;;;;;0.90;0.70;;;;;;;-143.84;39.18;45188.06;5109390;28;20476;-59
2024/01/15 01:52:32;;;;;;;0.80;0.60;;;;;;;-143.84;39.13;45165.22;5109358;28;20940;-59
2024/01/15 01:55:01;;;;;;;0.80;0.60;;;;;;;-143.84;39.09;45216.63;5109402;28;20806;-59
2024/01/15 01:57:28;;;;;;;0.80;0.50;;;;;;;-143.84;38.69;45178.56;5109231;28;20451;-59
2024/01/15 01:59:56;;;;;;;0.80;0.60;;;;;;;-143.84;38.75;45172.84;5109229;28;20442;-59
2024/01/15 02:02:24;;;;;;;0.80;0.47;;;;;;;-143.84;38.44;45186.16;5109110;28;20876;-59
2024/01/15 02:04:53;;;;;;;0.80;0.60;;;;;;;-143.84;38.33;45176.66;5109360;28;20439;-59
2024/01/15 02:07:20;;;;;;;0.80;0.60;;;;;;;-143.84;38.57;45186.16;5108360;28;20475;-59
2024/01/15 02:09:48;;;;;;;1.30;0.97;;;;;;;-143.84;38.32;45180.47;5108257;28;20916;-59
2024/01/15 02:12:15;;;;;;;1.53;1.43;;;;;;;-143.84;38.20;45216.63;5108422;28;20439;-59
2024/01/15 02:14:42;;;;;;;1.27;1.17;;;;;;;-143.84;38.43;45199.50;5108474;28;20439;-60
2024/01/15 02:17:09;;;;;;;0.80;0.67;;;;;;;-143.84;38.32;45197.59;5108315;28;20782;-59
2024/01/15 02:19:36;;;;;;;1.37;1.23;;;;;;;-143.84;38.58;45174.75;5108636;28;20447;-59
2024/01/15 02:22:05;;;;;;;1.00;0.90;;;;;;;-143.84;38.36;45172.84;5108410;28;20482;-59
2024/01/15 02:24:34;;;;;;;0.80;0.47;;;;;;;-143.84;38.72;45197.59;5108715;28;20439;-59
2024/01/15 02:27:00;;;;;;;1.00;0.80;;;;;;;-143.84;38.58;45163.31;5108770;28;20980;-59
2024/01/15 02:29:27;;;;;;;0.80;0.50;;;;;;;-143.84;38.75;45163.31;5108860;28;20478;-59
2024/01/15 02:31:54;;;;;;;0.90;0.80;;;;;;;-143.84;38.74;45161.41;5109016;28;20992;-59
2024/01/15 02:34:21;;;;;;;0.80;0.50;;;;;;;-143.84;38.59;45172.84;5109079;28;20439;-60
2024/01/15 02:36:48;;;;;;;0.80;0.60;;;;;;;-143.84;38.54;45189.97;5108850;28;20455;-59
2024/01/15 02:39:15;;;;;;;0.80;0.50;;;;;;;-143.84;38.67;45169.03;5108916;28;20490;-59
2024/01/15 02:41:44;;;;;;;0.90;0.73;;;;;;;-143.84;39.09;45178.56;5108837;28;20434;-59
2024/01/15 02:44:11;;;;;;;1.37;1.27;;;;;;;-143.84;39.25;45199.50;5108733;28;20482;-59
2024/01/15 02:46:38;;;;;;;1.37;1.27;;;;;;;-143.84;39.04;45186.16;5108701;28;20434;-59
2024/01/15 02:49:05;;;;;;;0.80;0.80;;;;;;;-143.84;39.72;45180.47;5109201;28;20434;-59
2024/01/15 02:51:32;;;;;;;0.80;0.60;;;;;;;-143.84;39.27;45184.25;5112776;28;20445;-59
2024/01/15 02:53:59;;;;;;;0.80;0.50;;;;;;;-143.84;39.76;45216.63;5112719;28;20435;-59
2024/01/15 02:56:26;;;;;;;0.80;0.63;;;;;;;-143.84;39.32;45161.41;5112616;28;20502;-59
2024/01/15 02:58:55;;;;;;;7.63;1.53;;;;;;;-143.84;39.64;45167.13;5112607;28;20499;-59
2024/01/15 03:01:22;;;;;;;1.83;1.63;;;;;;;-143.84;39.33;45176.66;5112525;28;20499;-59
2024/01/15 03:03:49;;;;;;;1.67;0.97;;;;;;;-143.84;39.39;45188.06;5112461;28;20478;-59
2024/01/15 03:06:16;;;;;;;0.80;0.60;;;;;;;-143.84;39.28;45174.75;5112377;28;21040;-59
2024/01/15 03:08:43;;;;;;;0.90;0.77;;;;;;;-143.84;39.75;45161.41;5112507;28;20438;-59
2024/01/15 03:11:10;;;;;;;0.80;0.60;;;;;;;-143.84;39.81;45186.16;5112452;28;20442;-59
2024/01/15 03:13:38;;;;;;;0.80;0.43;;;;;;;-143.84;39.87;45180.47;5112432;28;20503;-59
2024/01/15 03:16:07;;;;;;;0.80;0.60;;;;;;;-143.84;39.87;45188.06;5112380;28;20434;-59
2024/01/15 03:18:34;;;;;;;1.60;1.50;;;;;;;-143.84;40.23;45163.31;5112167;28;20474;-59
2024/01/15 03:21:02;;;;;;;1.27;1.00;;;;;;;-143.84;40.12;45176.66;5111941;28;20482;-59
2024/01/15 03:23:29;;;;;;;0.80;0.50;;;;;;;-143.84;40.36;45184.25;5112115;28;20569;-59
2024/01/15 03:25:56;;;;;;;1.00;0.60;;;;;;;-143.84;40.38;45169.03;5112477;28;20465;-59
2024/01/15 03:28:23;;;;;;;2.23;1.23;;;;;;;-143.84;40.53;45207.13;5112324;28;20819;-59
2024/01/15 03:30:53;;;;;;;1.17;1.07;;;;;;;-143.84;40.75;45199.50;5111864;28;20450;-59
2024/01/15 03:33:21;;;;;;;0.80;0.60;;;;;;;-143.84;40.83;45178.56;5111914;28;20450;-59
2024/01/15 03:35:48;;;;;;;1.20;0.80;;;;;;;-143.84;41.47;45189.97;5111951;28;20450;-59
2024/01/15 03:38:15;;;;;;;1.10;1.00;;;;;;;-143.84;41.57;45184.25;5111983;28;20448;-59
2024/01/15 03:40:43;;;;;;;0.80;0.57;;;;;;;-143.84;41.53;45178.56;5111704;28;20450;-59
2024/01/15 03:43:10;;;;;;;1.00;0.80;;;;;;;-143.84;41.05;45161.41;5111802;28;20543;-59
2024/01/15 03:45:37;;;;;;;0.80;0.67;;;;;;;-143.84;41.56;45191.88;5111797;28;20438;-59
2024/01/15 03:48:04;;;;;;;0.80;0.63;;;;;;;-143.84;41.87;45174.75;5111614;28;20503;-59
2024/01/15 03:50:33;;;;;;;0.80;0.50;;;;;;;-143.84;41.74;45174.75;5111873;28;20511;-59
2024/01/15 03:53:00;;;;;;;0.80;0.50;;;;;;;-143.84;41.64;45188.06;5111673;28;21289;-59
2024/01/15 03:55:27;;;;;;;0.80;0.50;;;;;;;-143.84;41.85;45163.31;5111734;28;20449;-59
2024/01/15 03:57:54;;;;;;;0.93;0.73;;;;;;;-143.84;41.87;45180.47;5111648;28;20442;-59
2024/01/15 04:00:22;;;;;;;0.80;0.50;;;;;;;-143.84;41.51;45180.47;5111666;28;20442;-59
2024/01/15 04:02:49;;;;;;;0.80;0.73;;;;;;;-143.84;41.51;45180.47;5110973;28;21420;-59
2024/01/15 04:05:16;;;;;;;0.80;0.60;;;;;;;-143.84;41.86;45180.47;5111479;28;20496;-59
2024/01/15 04:07:44;;;;;;;1.77;1.47;;;;;;;-143.84;41.51;45205.22;5111656;28;20439;-59
2024/01/15 04:10:12;;;;;;;0.80;0.70;;;;;;;-143.84;41.69;45207.13;5111392;28;21013;-59
2024/01/15 04:12:39;;;;;;;0.90;0.70;;;;;;;-143.84;41.50;45153.81;5111286;28;20524;-59
2024/01/15 04:15:07;;;;;;;0.80;0.50;;;;;;;-143.84;41.57;45189.97;5111336;28;21113;-59
2024/01/15 04:17:34;;;;;;;0.80;0.50;;;;;;;-143.84;41.53;45174.75;5111245;28;20438;-59
2024/01/15 04:20:01;;;;;;;0.80;0.43;;;;;;;-143.84;41.44;45212.84;5111227;28;21072;-59
2024/01/15 04:22:28;;;;;;;1.47;1.37;;;;;;;-143.84;41.43;45193.78;5111221;28;20499;-59
2024/01/15 04:24:56;;;;;;;1.00;0.90;;;;;;;-143.84;41.91;45188.06;5103884;28;20491;-59
2024/01/15 04:27:24;;;;;;;0.80;0.70;;;;;;;-143.84;41.48;45191.88;5092002;28;20963;-59
2024/01/15 04:29:51;;;;;;;0.80;0.60;;;;;;;-143.84;41.53;45209.03;5092133;28;20584;-59
2024/01/15 04:32:18;;;;;;;1.63;1.53;;;;;;;-143.84;41.96;45172.84;5092037;28;20442;-59
2024/01/15 04:34:45;;;;;;;1.13;1.03;;;;;;;-143.84;42.00;45193.78;5091499;28;20497;-59
2024/01/15 04:37:12;;;;;;;1.53;0.70;;;;;;;-143.84;42.42;45178.56;5091739;28;20561;-59
2024/01/15 04:39:39;;;;;;;0.97;0.87;;;;;;;-143.84;41.85;45170.94;5091780;28;20447;-58
2024/01/15 04:42:08;;;;;;;1.00;0.70;;;;;;;-143.84;41.48;45203.31;5091757;28;20497;-60
2024/01/15 04:44:35;;;;;;;0.90;0.80;;;;;;;-143.84;41.65;45205.22;5091497;28;20508;-59
2024/01/15 04:47:02;;;;;;;0.80;0.50;;;;;;;-143.84;41.94;45170.94;5091560;28;21010;-60
2024/01/15 04:49:30;;;;;;;0.80;0.60;;;;;;;-143.84;41.88;45169.03;5091201;28;20428;-59
2024/01/15 04:51:57;;;;;;;1.00;0.70;;;;;;;-143.84;41.47;45203.31;5091235;28;20801;-59
2024/01/15 04:54:24;;;;;;;0.80;0.40;;;;;;;-143.84;41.59;45170.94;5091678;28;20433;-59
2024/01/15 04:56:51;;;;;;;0.80;0.50;;;;;;;-143.84;41.57;45189.97;5091300;28;20436;-59
2024/01/15 04:59:19;;;;;;;0.80;0.50;;;;;;;-143.84;41.82;45176.66;5091416;28;20501;-59
2024/01/15 05:01:47;;;;;;;0.80;0.40;;;;;;;-143.84;41.67;45159.50;5093274;28;20444;-59
2024/01/15 05:04:14;;;;;;;0.80;0.50;;;;;;;-143.84;41.50;45165.22;5111948;28;20569;-59
2024/01/15 05:06:41;;;;;;;0.90;0.70;;;;;;;-143.84;41.81;45195.69;5111114;28;20439;-59
2024/01/15 05:09:08;;;;;;;0.90;0.80;;;;;;;-143.84;41.70;45176.66;5111192;28;20495;-59
2024/01/15 05:11:35;;;;;;;0.80;0.53;;;;;;;-143.84;41.66;45172.84;5111104;28;20531;-59
2024/01/15 05:14:03;;;;;;;0.90;0.60;;;;;;;-143.84;41.53;45186.16;5110107;28;20435;-60
2024/01/15 05:16:31;;;;;;;1.00;0.70;;;;;;;-143.84;41.82;45161.41;5110616;28;20531;-60
2024/01/15 05:18:58;;;;;;;0.80;0.60;;;;;;;-143.84;41.86;45144.28;5110171;28;20497;-60
2024/01/15 05:21:26;;;;;;;0.80;0.50;;;;;;;-143.84;41.72;45186.16;5109780;28;20565;-60
2024/01/15 05:23:53;;;;;;;0.80;0.40;;;;;;;-143.84;41.70;45189.97;5109898;28;20479;-60
2024/01/15 05:26:20;;;;;;;1.07;0.97;;;;;;;-143.84;41.59;45191.88;5110070;28;20958;-60
2024/01/15 05:28:47;;;;;;;1.00;0.90;;;;;;;-143.84;41.78;45150.00;5109873;28;20496;-60
2024/01/15 05:31:14;;;;;;;0.80;0.60;;;;;;;-143.84;41.75;45205.22;5109842;28;20435;-60
2024/01/15 05:33:42;;;;;;;1.60;1.23;;;;;;;-143.84;42.00;45174.75;5109816;28;20572;-60
2024/01/15 05:36:10;;;;;;;0.80;0.60;;;;;;;-143.84;41.67;45184.25;5109672;28;20507;-60
2024/01/15 05:38:37;;;;;;;0.97;0.70;;;;;;;-143.84;41.49;45176.66;5109455;28;20847;-60
2024/01/15 05:41:04;;;;;;;0.90;0.70;;;;;;;-143.84;41.57;45165.22;5109936;28;21288;-60
2024/01/15 05:43:31;;;;;;;0.80;0.50;;;;;;;-143.84;41.17;45174.75;5109630;28;20893;-60
2024/01/15 05:45:58;;;;;;;0.80;0.50;;;;;;;-143.84;41.14;45155.69;5109684;28;20487;-60
2024/01/15 05:48:26;;;;;;;0.93;0.83;;;;;;;-143.84;41.11;45161.41;5109305;28;20452;-60
2024/01/15 05:50:54;;;;;;;0.80;0.70;;;;;;;-143.84;40.73;45165.22;5109335;28;20489;-60
2024/01/15 05:53:21;;;;;;;0.80;0.60;;;;;;;-143.84;40.75;45153.81;5109355;28;21059;-60
2024/01/15 05:55:49;;;;;;;0.80;0.50;;;;;;;-143.84;40.67;45178.56;5109420;28;20937;-60
2024/01/15 05:58:16;;;;;;;0.80;0.50;;;;;;;-143.84;40.38;45153.81;5109398;28;20467;-60
2024/01/15 06:00:43;;;;;;;0.80;0.50;;;;;;;-143.84;40.43;45161.41;5109359;28;20929;-60
2024/01/15 06:03:10;;;;;;;0.80;0.53;;;;;;;-143.84;40.19;45161.41;5109066;28;20925;-60
2024/01/15 06:05:37;;;;;;;0.80;0.50;;;;;;;-143.84;39.94;45151.91;5109169;28;20521;-60
2024/01/15 06:08:06;;;;;;;3.73;1.57;;;;;;;-143.84;39.66;45142.38;5109325;28;20447;-60
2024/01/15 06:10:33;;;;;;;0.80;0.60;;;;;;;-143.84;39.38;45191.88;5109450;28;20452;-60
2024/01/15 06:13:00;;;;;;;5.80;1.33;;;;;;;-143.84;39.30;45189.97;5109358;28;21318;-60
2024/01/15 06:15:28;;;;;;;0.93;0.83;;;;;;;-143.84;38.78;45165.22;5109400;28;20450;-60
2024/01/15 06:17:55;;;;;;;1.57;0.67;;;;;;;-143.84;38.92;45169.03;5109497;28;20432;-60
2024/01/15 06:20:22;;;;;;;1.23;0.63;;;;;;;-143.84;38.86;45159.50;5108927;28;20485;-60
2024/01/15 06:22:49;;;;;;;0.80;0.70;;;;;;;-143.84;38.49;45169.03;5109263;28;20434;-60
2024/01/15 06:25:17;;;;;;;0.80;0.60;;;;;;;-143.84;38.54;45186.16;5109013;28;20538;-60
2024/01/15 06:27:45;;;;;;;0.80;0.60;;;;;;;-143.84;37.98;45180.47;5109287;28;20444;-60
2024/01/15 06:30:13;;;;;;;0.80;0.50;;;;;;;-143.84;38.45;45180.47;5109112;28;20792;-60
2024/01/15 06:32:40;;;;;;;1.93;1.00;;;;;;;-143.84;37.97;45151.91;5108949;28;20449;-60
2024/01/15 06:35:08;;;;;;;0.90;0.80;;;;;;;-143.84;38.06;45176.66;5109216;28;20459;-60
2024/01/15 06:37:35;;;;;;;0.80;0.60;;;;;;;-143.84;37.70;45176.66;5108720;28;20930;-60
2024/01/15 06:40:02;;;;;;;0.80;0.50;;;;;;;-143.84;37.91;45155.69;5108756;28;20461;-60
2024/01/15 06:42:31;;;;;;;0.80;0.63;;;;;;;-143.84;37.40;45163.31;5107973;28;20441;-60
2024/01/15 06:44:58;;;;;;;0.80;0.47;;;;;;;-143.84;37.14;45146.19;5107694;28;21002;-60
2024/01/15 06:47:25;;;;;;;0.90;0.70;;;;;;;-143.84;37.20;45153.81;5107984;28;20428;-60
2024/01/15 06:49:52;;;;;;;0.80;0.77;;;;;;;-143.84;37.01;45155.69;5108436;28;20479;-60
2024/01/15 06:52:20;;;;;;;0.80;0.50;;;;;;;-143.84;36.36;45167.13;5107895;28;20446;-61
2024/01/15 06:54:48;;;;;;;1.10;0.90;;;;;;;-143.84;36.55;45189.97;5107812;28;20503;-60
2024/01/15 06:57:15;;;;;;;0.90;0.77;;;;;;;-143.84;36.29;45146.19;5108845;28;20449;-60
2024/01/15 06:59:44;;;;;;;0.80;0.50;;;;;;;-143.84;36.21;45138.56;5108469;28;20436;-60
2024/01/15 07:02:12;;;;;;;0.80;0.50;;;;;;;-143.84;36.39;45127.13;5108734;28;20515;-61
2024/01/15 07:04:39;;;;;;;0.80;0.60;;;;;;;-143.84;35.65;45142.38;5108445;28;20543;-61
2024/01/15 07:07:06;;;;;;;0.80;0.70;;;;;;;-143.84;35.48;45155.69;5108513;28;20443;-61
2024/01/15 07:09:34;;;;;;;0.83;0.70;;;;;;;-143.84;35.31;45134.75;5108314;28;20435;-61
2024/01/15 07:12:01;;;;;;;1.00;0.90;;;;;;;-143.84;35.30;45150.00;5108358;28;20434;-61
2024/01/15 07:14:28;;;;;;;1.43;1.33;;;;;;;-143.84;34.55;45144.28;5107970;28;21014;-60
2024/01/15 07:16:57;;;;;;;0.90;0.70;;;;;;;-143.84;34.49;45125.22;5107977;28;20435;-60
2024/01/15 07:19:24;;;;;;;0.80;0.57;;;;;;;-143.84;34.25;45134.75;5108262;28;20439;-60
2024/01/15 07:21:51;;;;;;;1.90;0.70;;;;;;;-143.84;34.54;45146.19;5107803;28;20485;-60
2024/01/15 07:24:18;;;;;;;2.03;1.20;;;;;;;-143.84;34.27;45142.38;5107770;28;20474;-60
2024/01/15 07:26:45;;;;;;;1.00;0.90;;;;;;;-143.84;33.64;45123.34;5108012;28;20447;-60
2024/01/15 07:29:12;;;;;;;1.10;1.00;;;;;;;-143.84;33.33;45132.84;5108195;28;20446;-60
2024/01/15 07:31:39;;;;;;;1.17;1.07;;;;;;;-143.84;33.38;45132.84;5107972;28;20496;-60
2024/01/15 07:34:08;;;;;;;1.40;1.10;;;;;;;-143.84;33.39;45115.72;5107773;28;20427;-58
2024/01/15 07:36:35;;;;;;;0.97;0.70;;;;;;;-143.84;33.29;45136.66;5108743;28;20463;-59
2024/01/15 07:39:02;;;;;;;0.83;0.53;;;;;;;-143.84;32.55;45132.84;5108620;28;20446;-58
2024/01/15 07:41:29;;;;;;;0.93;0.77;;;;;;;-143.84;32.43;45121.44;5111356;28;20431;-59
2024/01/15 07:43:56;;;;;;;2.13;1.70;;;;;;;-143.84;31.64;45140.47;5111389;28;20551;-59
2024/01/15 07:46:24;;;;;;;0.87;0.70;;;;;;;-143.84;31.83;45110.00;5111546;28;21155;-59
2024/01/15 07:48:56;;;;;;;0.97;0.87;;;;;;;-143.84;31.66;45129.03;5111553;28;20542;-59
2024/01/15 07:51:24;;;;;;;1.57;1.07;;;;;;;-143.84;31.83;45110.00;5111467;28;20445;-58
2024/01/15 07:53:52;;;;;;;1.13;1.03;;;;;;;-143.84;32.11;45129.03;5111454;28;20446;-58
2024/01/15 07:56:19;;;;;;;2.40;1.20;;;;;;;-143.84;32.21;45146.19;5111090;28;20457;-58
2024/01/15 07:58:46;;;;;;;1.50;1.40;;;;;;;-143.84;32.34;45134.75;5111082;28;20442;-58
2024/01/15 08:01:13;;;;;;;2.13;0.80;;;;;;;-143.84;32.28;45117.63;5111133;28;20503;-58
2024/01/15 08:03:40;;;;;;;1.13;0.60;;;;;;;-143.84;33.05;45142.38;5111053;28;20504;-58
2024/01/15 08:06:09;;;;;;;1.20;0.87;;;;;;;-143.84;32.45;45108.09;5110985;28;20435;-58
2024/01/15 08:08:38;;;;;;;1.00;0.90;;;;;;;-143.84;32.26;45153.81;5108463;28;20447;-58
2024/01/15 08:11:05;;;;;;;22.30;1.87;;;;;;;-143.84;32.64;45132.84;5110727;28;20442;-58
2024/01/15 08:13:33;;;;;;;1.20;0.90;;;;;;;-143.84;32.54;45123.34;5110781;28;20499;-58
2024/01/15 08:16:00;;;;;;;0.90;0.60;;;;;;;-143.84;32.35;45102.38;5110957;28;20439;-58
2024/01/15 08:18:27;;;;;;;2.27;1.87;;;;;;;-143.84;32.52;45123.34;5111084;28;20439;-59
2024/01/15 08:20:54;;;;;;;3.23;1.43;;;;;;;-143.84;32.71;45087.16;5100535;28;20480;-59
2024/01/15 08:23:21;;;;;;;7.40;1.10;;;;;;;-143.84;33.14;45144.28;5094064;28;20810;-59
2024/01/15 08:25:50;;;;;;;2.00;0.90;;;;;;;-143.84;33.68;45130.94;5110705;28;20475;-58
2024/01/15 08:28:17;;;;;;;1.43;1.23;;;;;;;-143.84;33.31;45121.44;5110992;28;20837;-58
2024/01/15 08:30:44;;;;;;;1.77;1.37;;;;;;;-143.84;34.25;45121.44;5110876;28;20500;-58
2024/01/15 08:33:12;;;;;;;1.40;1.23;;;;;;;-143.84;34.71;45100.47;5100009;28;20938;-59
2024/01/15 08:35:40;;;;;;;1.00;0.90;;;;;;;-143.84;35.49;45115.72;5098975;28;20440;-59
2024/01/15 08:38:07;;;;;;;2.30;2.10;;;;;;;-143.84;35.60;45146.19;5099622;28;20439;-59
2024/01/15 08:40:34;;;;;;;1.90;1.77;;;;;;;-143.84;36.26;45100.47;5098912;28;20500;-59
2024/01/15 08:43:03;;;;;;;0.90;0.70;;;;;;;-143.84;36.67;45113.81;5111003;28;20443;-59
2024/01/15 08:45:30;;;;;;;1.77;1.23;;;;;;;-143.84;37.10;45130.94;5110841;28;20470;-59
2024/01/15 08:47:57;;;;;;;1.00;0.90;;;;;;;-143.84;37.25;45121.44;5110094;28;20446;-58
2024/01/15 08:50:24;;;;;;;2.20;1.73;;;;;;;-143.84;37.36;45140.47;5110481;28;20443;-58
2024/01/15 08:52:51;;;;;;;2.03;1.00;;;;;;;-143.84;37.12;45104.28;5110303;28;20979;-58
2024/01/15 08:55:19;;;;;;;1.93;1.30;;;;;;;-143.84;37.25;45142.38;5110197;28;20454;-58
2024/01/15 08:57:46;;;;;;;0.80;0.50;;;;;;;-143.84;36.93;45127.13;5110392;28;20447;-58
2024/01/15 09:00:16;;;;;;;2.60;1.40;;;;;;;-143.84;37.43;45106.19;5094987;28;20452;-58
2024/01/15 09:02:43;;;;;;;3.23;2.63;;;;;;;-143.84;37.10;45111.91;5089783;28;20451;-58
2024/01/15 09:05:10;;;;;;;1.73;1.10;;;;;;;-143.84;36.61;45110.00;5090021;28;20475;-58
2024/01/15 09:07:37;;;;;;;3.50;2.17;;;;;;;-143.84;36.36;45087.16;5089991;28;20885;-59
2024/01/15 09:10:05;;;;;;;2.40;1.47;;;;;;;-143.84;35.98;45132.84;5089885;28;20474;-59
2024/01/15 09:12:33;;;;;;;1.83;1.17;;;;;;;-143.84;35.65;45123.34;5089754;28;20456;-59
2024/01/15 09:15:04;;;;;;;1.23;1.13;;;;;;;-143.84;37.46;45113.81;5090102;28;21398;-59
2024/01/15 09:17:32;;;;;;;2.43;1.47;;;;;;;-143.84;37.01;45127.13;5089774;28;20872;-59
2024/01/15 09:20:00;;;;;;;1.83;0.87;;;;;;;-143.84;36.79;45127.13;5089598;28;20440;-59
2024/01/15 09:22:27;;;;;;;0.90;0.80;;;;;;;-143.84;36.56;45136.66;5089319;28;20960;-59
2024/01/15 09:24:54;;;;;;;9.97;1.73;;;;;;;-143.84;35.69;45117.63;5089337;28;20483;-59
2024/01/15 09:27:21;;;;;;;1.57;1.47;;;;;;;-143.84;35.55;45117.63;5089333;28;20440;-59
2024/01/15 09:29:49;;;;;;;1.17;0.83;;;;;;;-143.84;36.22;45111.91;5089242;28;20444;-59
2024/01/15 09:32:17;;;;;;;1.90;1.30;;;;;;;-143.84;34.54;45146.19;5089506;28;20571;-59
2024/01/15 09:34:47;;;;;;;3.93;2.00;;;;;;;-143.84;34.41;45100.47;5089154;28;20436;-59
2024/01/15 09:37:15;;;;;;;1.43;0.90;;;;;;;-143.84;33.72;45094.78;5089392;28;20497;-59
2024/01/15 09:39:42;;;;;;;2.13;1.47;;;;;;;-143.84;32.96;45121.44;5089295;28;20447;-59
2024/01/15 09:42:12;;;;;;;4.97;1.60;;;;;;;-143.84;34.22;45110.00;5089145;28;20451;-59
2024/01/15 09:44:39;;;;;;;0.90;0.70;;;;;;;-143.84;32.66;45119.53;5088993;28;20479;-59
2024/01/15 09:47:07;;;;;;;1.80;1.70;;;;;;;-143.84;32.20;45144.28;5089123;28;20984;-59
2024/01/15 09:49:34;;;;;;;2.20;2.07;;;;;;;-143.84;33.05;45090.97;5089269;28;20442;-59
2024/01/15 09:52:04;;;;;;;4.30;1.20;;;;;;;-143.84;33.46;45083.34;5089255;28;20439;-59
2024/01/15 09:54:31;;;;;;;1.90;1.67;;;;;;;-143.84;33.10;45089.06;5089243;28;20440;-60
2024/01/15 09:57:00;;;;;;;3.87;3.57;;;;;;;-143.84;33.24;45104.28;5088830;28;20432;-60
2024/01/15 09:59:29;;;;;;;5.93;0.90;;;;;;;-143.84;33.08;45110.00;5088462;28;20439;-59
2024/01/15 10:01:58;;;;;;;2.07;1.97;;;;;;;-143.84;33.80;45111.91;5089126;28;20444;-59
2024/01/15 10:04:25;;;;;;;3.10;1.60;;;;;;;-143.84;33.44;45115.72;5088581;28;20531;-59
2024/01/15 10:06:53;;;;;;;1.20;1.07;;;;;;;-143.84;33.23;45106.19;5088662;28;20570;-59
2024/01/15 10:09:22;;;;;;;2.60;2.37;;;;;;;-143.84;33.57;45075.72;5088831;28;20451;-59
2024/01/15 10:11:49;;;;;;;1.83;1.70;;;;;;;-143.84;34.15;45104.28;5088645;28;20504;-59
2024/01/15 10:14:16;;;;;;;2.20;2.00;;;;;;;-143.84;35.36;45111.91;5086656;28;20456;-59
2024/01/15 10:16:44;;;;;;;0.80;0.70;;;;;;;-143.84;35.68;45170.94;5085730;28;20464;-59
2024/01/15 10:19:11;;;;;;;0.80;0.63;;;;;;;-143.84;35.50;45115.72;5088524;28;21000;-58
2024/01/15 10:21:39;;;;;;;2.57;2.00;;;;;;;-143.84;35.53;45117.63;5088161;28;20486;-59
2024/01/15 10:24:06;;;;;;;1.80;1.53;;;;;;;-143.84;35.65;45110.00;5088327;28;20547;-58
2024/01/15 10:26:35;;;;;;;2.07;1.97;;;;;;;-143.84;35.99;45100.47;5087792;28;20479;-59
2024/01/15 10:29:03;;;;;;;3.83;1.27;;;;;;;-143.84;37.13;45090.97;5088276;28;20432;-59
2024/01/15 10:31:30;;;;;;;3.00;1.77;;;;;;;-143.84;38.35;45089.06;5088516;28;20447;-59
2024/01/15 10:34:11;;;;;;;2.20;1.90;;;;;;;-143.84;39.29;45117.63;5088267;28;20425;-59
2024/01/15 10:36:41;;;;;;;4.50;2.10;;;;;;;-143.84;40.02;45102.38;5088560;28;20993;-59
2024/01/15 10:39:08;;;;;;;3.63;2.23;;;;;;;-143.84;40.06;45089.06;5088307;28;20522;-59
2024/01/15 10:41:37;;;;;;;1.30;1.20;;;;;;;-143.84;40.17;45125.22;5088048;28;20523;-59
2024/01/15 10:44:04;;;;;;;3.80;2.40;;;;;;;-143.84;41.11;45102.38;5088055;28;20439;-59
2024/01/15 10:46:33;;;;;;;2.07;0.90;;;;;;;-143.84;43.16;45125.22;5087732;28;20484;-59
2024/01/15 10:49:01;;;;;;;1.17;0.80;;;;;;;-143.84;45.02;45148.09;5088144;28;20432;-59
2024/01/15 10:51:29;;;;;;;1.20;0.90;;;;;;;-143.84;44.17;45134.75;5088165;28;20424;-59
2024/01/15 10:53:58;;;;;;;2.80;1.47;;;;;;;-143.84;45.68;45132.84;5088214;28;20926;-59
2024/01/15 10:56:26;;;;;;;1.90;1.80;;;;;;;-143.84;45.89;45121.44;5087710;28;20440;-59
2024/01/15 10:58:55;;;;;;;2.53;1.30;;;;;;;-143.84;45.24;45090.97;5087973;28;20443;-59
2024/01/15 11:01:23;;;;;;;1.07;0.83;;;;;;;-143.84;44.45;45130.94;5088236;28;20575;-59
2024/01/15 11:03:51;;;;;;;0.80;0.53;;;;;;;-143.84;45.59;45119.53;5084439;28;20968;-59
2024/01/15 11:06:19;;;;;;;2.03;1.10;;;;;;;-143.84;46.73;45119.53;5081934;28;20487;-59
2024/01/15 11:08:47;;;;;;;1.20;1.10;;;;;;;-143.84;47.96;45150.00;5087551;28;20448;-59
2024/01/15 11:11:15;;;;;;;2.10;1.90;;;;;;;-143.84;46.60;45138.56;5090178;28;20830;-59
2024/01/15 11:13:43;;;;;;;2.13;1.93;;;;;;;-143.84;44.32;45146.19;5090941;28;20428;-59
2024/01/15 11:16:13;;;;;;;2.50;1.87;;;;;;;-143.84;45.71;45138.56;5091072;28;20443;-59
2024/01/15 11:18:42;;;;;;;1.77;1.67;;;;;;;-143.84;45.76;45125.22;5091938;28;20435;-59